Time;durP1;ratioP1;P1;durP2;ratioP2;P2;SDS_P1;SDS_P2;PMS_P1;PMS_P2;Temp;Humidity;BMP_temperature;BMP_pressure;BME280_temperature;BME280_humidity;BME280_pressure;Samples;Min_cycle;Max_cycle;Signal;HPM_P1;HPM_P2
2022/08/28 00:01:28;;;;;;;18.27;16.38;;;;;;;;;;5026447;28;20051;-77
2022/08/28 00:03:54;;;;;;;16.83;15.05;;;;;;;;;;5027102;28;20417;-75
2022/08/28 00:06:19;;;;;;;18.80;13.63;;;;;;;;;;5026426;28;20040;-74
2022/08/28 00:08:45;;;;;;;17.17;15.43;;;;;;;;;;5026874;28;20052;-75
2022/08/28 00:11:11;;;;;;;16.98;15.30;;;;;;;;;;5026252;28;21004;-75
2022/08/28 00:13:36;;;;;;;16.95;15.10;;;;;;;;;;5027161;28;20087;-76
2022/08/28 00:16:02;;;;;;;16.08;14.57;;;;;;;;;;5025717;28;20033;-75
2022/08/28 00:18:28;;;;;;;16.55;14.85;;;;;;;;;;5025344;28;21219;-75
2022/08/28 00:20:53;;;;;;;16.58;14.90;;;;;;;;;;5026108;28;20029;-76
2022/08/28 00:23:19;;;;;;;17.48;15.68;;;;;;;;;;5026094;28;20346;-75
2022/08/28 00:25:45;;;;;;;16.27;14.85;;;;;;;;;;5026057;28;20033;-74
2022/08/28 00:28:11;;;;;;;16.92;15.38;;;;;;;;;;5025947;28;20044;-75
2022/08/28 00:30:38;;;;;;;17.80;15.95;;;;;;;;;;5026157;28;20366;-76
2022/08/28 00:33:05;;;;;;;19.60;15.50;;;;;;;;;;5025787;28;20025;-76
2022/08/28 00:35:31;;;;;;;17.38;14.82;;;;;;;;;;5026148;28;20040;-74
2022/08/28 00:37:56;;;;;;;16.80;14.98;;;;;;;;;;5027165;28;20037;-76
2022/08/28 00:40:23;;;;;;;17.98;16.05;;;;;;;;;;5026916;28;20029;-75
2022/08/28 00:42:49;;;;;;;17.60;15.80;;;;;;;;;;5026921;28;20060;-75
2022/08/28 00:45:15;;;;;;;17.88;16.00;;;;;;;;;;5027606;28;20041;-76
2022/08/28 00:47:41;;;;;;;16.60;15.05;;;;;;;;;;5025531;28;20065;-76
2022/08/28 00:50:08;;;;;;;17.48;15.88;;;;;;;;;;5026582;28;20126;-74
2022/08/28 00:52:33;;;;;;;17.50;15.73;;;;;;;;;;5025552;28;20037;-75
2022/08/28 00:55:00;;;;;;;16.15;14.65;;;;;;;;;;5028360;28;20029;-76
2022/08/28 00:57:37;;;;;;;17.05;15.55;;;;;;;;;;5027624;28;20037;-75
2022/08/28 01:00:05;;;;;;;18.67;16.08;;;;;;;;;;5024692;28;20425;-74
2022/08/28 01:02:30;;;;;;;17.40;15.70;;;;;;;;;;5027141;28;20026;-76
2022/08/28 01:04:56;;;;;;;18.63;16.20;;;;;;;;;;5024849;28;20026;-76
2022/08/28 01:07:22;;;;;;;21.48;18.63;;;;;;;;;;5026089;28;20041;-76
2022/08/28 01:09:49;;;;;;;21.88;17.70;;;;;;;;;;5023862;28;20440;-75
2022/08/28 01:12:17;;;;;;;19.52;16.63;;;;;;;;;;5024401;28;20052;-75
2022/08/28 01:14:44;;;;;;;19.17;16.25;;;;;;;;;;5023788;28;20068;-75
2022/08/28 01:17:12;;;;;;;19.48;17.58;;;;;;;;;;5026109;28;20033;-74
2022/08/28 01:19:42;;;;;;;18.05;16.35;;;;;;;;;;5027635;28;20021;-76
2022/08/28 01:22:17;;;;;;;19.20;16.27;;;;;;;;;;5024835;28;20388;-76
2022/08/28 01:24:43;;;;;;;19.27;16.45;;;;;;;;;;5026969;28;20044;-75
2022/08/28 01:27:09;;;;;;;17.52;15.90;;;;;;;;;;5025013;28;20087;-75
2022/08/28 01:29:35;;;;;;;18.38;15.73;;;;;;;;;;5025820;28;20415;-76
2022/08/28 01:32:00;;;;;;;17.10;15.43;;;;;;;;;;5025039;28;20039;-75
2022/08/28 01:34:26;;;;;;;19.77;15.65;;;;;;;;;;5025048;28;20033;-74
2022/08/28 01:36:51;;;;;;;18.65;16.75;;;;;;;;;;5028672;28;20065;-74
2022/08/28 01:39:18;;;;;;;17.45;15.75;;;;;;;;;;5026836;28;20091;-75
2022/08/28 01:41:45;;;;;;;19.67;17.80;;;;;;;;;;5024081;28;20046;-74
2022/08/28 01:44:12;;;;;;;20.70;17.35;;;;;;;;;;5023861;28;20476;-75
2022/08/28 01:46:40;;;;;;;20.23;17.45;;;;;;;;;;5024801;28;20140;-74
2022/08/28 01:49:05;;;;;;;21.73;17.83;;;;;;;;;;5025553;28;20116;-74
2022/08/28 01:51:30;;;;;;;18.77;16.00;;;;;;;;;;5025115;28;20021;-75
2022/08/28 01:53:56;;;;;;;17.27;15.02;;;;;;;;;;5025394;28;20048;-75
2022/08/28 01:56:21;;;;;;;18.80;17.13;;;;;;;;;;5023930;28;20076;-73
2022/08/28 01:58:47;;;;;;;21.08;17.10;;;;;;;;;;5025694;28;20115;-73
2022/08/28 02:01:14;;;;;;;16.95;15.25;;;;;;;;;;5026995;28;20076;-73
2022/08/28 02:03:41;;;;;;;17.48;15.80;;;;;;;;;;5025271;28;20029;-75
2022/08/28 02:06:06;;;;;;;18.55;16.70;;;;;;;;;;5024387;28;20112;-74
2022/08/28 02:08:32;;;;;;;17.95;16.02;;;;;;;;;;5006002;28;20172;-75
2022/08/28 02:10:57;;;;;;;17.90;16.17;;;;;;;;;;5025922;28;20032;-73
2022/08/28 02:13:23;;;;;;;17.70;16.10;;;;;;;;;;5023144;28;20412;-73
2022/08/28 02:15:49;;;;;;;17.45;15.85;;;;;;;;;;5024393;28;20040;-74
2022/08/28 02:18:17;;;;;;;17.98;16.10;;;;;;;;;;5022872;28;20460;-74
2022/08/28 02:20:42;;;;;;;18.30;16.55;;;;;;;;;;5023954;28;20057;-74
2022/08/28 02:23:08;;;;;;;19.50;17.17;;;;;;;;;;5025065;28;20065;-74
2022/08/28 02:25:34;;;;;;;19.30;17.40;;;;;;;;;;5023083;28;20033;-74
2022/08/28 02:27:59;;;;;;;18.10;16.17;;;;;;;;;;5024844;28;20417;-76
2022/08/28 02:30:24;;;;;;;18.73;16.85;;;;;;;;;;5023121;28;20029;-75
2022/08/28 02:32:50;;;;;;;18.83;16.98;;;;;;;;;;5025098;28;20021;-75
2022/08/28 02:35:16;;;;;;;18.67;16.88;;;;;;;;;;5023221;28;20045;-74
2022/08/28 02:37:43;;;;;;;17.85;16.25;;;;;;;;;;5025058;28;20055;-75
2022/08/28 02:40:09;;;;;;;18.13;15.93;;;;;;;;;;5023322;28;20028;-75
2022/08/28 02:42:34;;;;;;;17.65;15.48;;;;;;;;;;5025275;28;20414;-74
2022/08/28 02:44:59;;;;;;;18.45;16.52;;;;;;;;;;5023861;28;20046;-74
2022/08/28 02:47:25;;;;;;;17.52;15.68;;;;;;;;;;5024707;28;20053;-74
2022/08/28 02:49:51;;;;;;;17.20;15.65;;;;;;;;;;5025367;28;20028;-74
2022/08/28 02:52:17;;;;;;;17.58;15.23;;;;;;;;;;5025625;28;20341;-74
2022/08/28 02:54:45;;;;;;;17.60;15.90;;;;;;;;;;5022455;28;20404;-74
2022/08/28 02:57:10;;;;;;;17.38;15.73;;;;;;;;;;5022845;28;20029;-75
2022/08/28 02:59:37;;;;;;;16.83;15.23;;;;;;;;;;5025479;28;20103;-75
2022/08/28 03:02:02;;;;;;;17.80;14.80;;;;;;;;;;5022871;28;20032;-74
2022/08/28 03:04:30;;;;;;;17.80;16.13;;;;;;;;;;5021722;28;20127;-73
2022/08/28 03:06:55;;;;;;;17.73;15.98;;;;;;;;;;5024210;28;20368;-76
2022/08/28 03:09:20;;;;;;;16.80;15.30;;;;;;;;;;5020937;28;20033;-75
2022/08/28 03:11:46;;;;;;;19.08;16.40;;;;;;;;;;5024278;28;20025;-75
2022/08/28 03:14:11;;;;;;;18.02;16.17;;;;;;;;;;5024278;28;20053;-74
2022/08/28 03:16:36;;;;;;;17.60;15.82;;;;;;;;;;5024795;28;20040;-75
2022/08/28 03:19:02;;;;;;;17.88;16.13;;;;;;;;;;5025360;28;20036;-74
2022/08/28 03:21:28;;;;;;;18.73;16.77;;;;;;;;;;5025916;28;20024;-73
2022/08/28 03:23:53;;;;;;;19.17;16.20;;;;;;;;;;5022641;28;20037;-77
2022/08/28 03:26:19;;;;;;;17.42;15.85;;;;;;;;;;5023890;28;20080;-75
2022/08/28 03:28:46;;;;;;;18.33;16.25;;;;;;;;;;5023898;28;20022;-74
2022/08/28 03:31:13;;;;;;;17.65;16.00;;;;;;;;;;5023948;28;20068;-74
2022/08/28 03:33:40;;;;;;;17.92;16.23;;;;;;;;;;5023619;28;20026;-77
2022/08/28 03:36:06;;;;;;;17.80;16.20;;;;;;;;;;5024148;28;20036;-74
2022/08/28 03:38:32;;;;;;;19.65;17.73;;;;;;;;;;5023814;28;20387;-74
2022/08/28 03:40:58;;;;;;;19.77;16.33;;;;;;;;;;5023775;28;20030;-77
2022/08/28 03:43:23;;;;;;;19.40;17.73;;;;;;;;;;5025792;28;20052;-78
2022/08/28 03:45:59;;;;;;;18.42;16.58;;;;;;;;;;5024048;28;20057;-74
2022/08/28 03:48:26;;;;;;;18.80;17.05;;;;;;;;;;5023559;28;20045;-72
2022/08/28 03:50:52;;;;;;;19.30;17.50;;;;;;;;;;5024235;28;20029;-75
2022/08/28 03:53:18;;;;;;;19.88;18.08;;;;;;;;;;5027141;28;20689;-73
2022/08/28 03:55:43;;;;;;;19.40;17.58;;;;;;;;;;5025301;28;20434;-74
2022/08/28 03:58:09;;;;;;;19.45;17.48;;;;;;;;;;5026143;28;20071;-73
2022/08/28 04:00:34;;;;;;;19.52;17.38;;;;;;;;;;5026001;28;20091;-73
2022/08/28 04:02:59;;;;;;;20.02;18.00;;;;;;;;;;5028017;28;20040;-75
2022/08/28 04:05:25;;;;;;;19.48;17.58;;;;;;;;;;5027137;28;20036;-77
2022/08/28 04:07:52;;;;;;;18.77;16.88;;;;;;;;;;5025598;28;20575;-74
2022/08/28 04:10:18;;;;;;;19.67;17.48;;;;;;;;;;5027998;28;20048;-74
2022/08/28 04:12:44;;;;;;;20.05;18.23;;;;;;;;;;5028762;28;20032;-76
2022/08/28 04:15:10;;;;;;;20.65;17.13;;;;;;;;;;5027148;28;20369;-76
2022/08/28 04:17:39;;;;;;;18.92;17.23;;;;;;;;;;5026265;28;20287;-74
2022/08/28 04:20:05;;;;;;;;;;;;;;;;;;5028674;28;20033;-74
2022/08/28 04:22:30;;;;;;;17.87;15.97;;;;;;;;;;5026570;28;19917;-75
2022/08/28 04:24:55;;;;;;;19.05;17.25;;;;;;;;;;5025107;28;20356;-75
2022/08/28 04:27:21;;;;;;;19.08;17.27;;;;;;;;;;5027399;28;20040;-74
2022/08/28 04:29:47;;;;;;;19.02;17.10;;;;;;;;;;5026023;28;20029;-76
2022/08/28 04:32:13;;;;;;;20.23;17.98;;;;;;;;;;5025335;28;20032;-75
2022/08/28 04:34:38;;;;;;;20.80;18.73;;;;;;;;;;5026534;28;20041;-73
2022/08/28 04:37:04;;;;;;;20.13;18.15;;;;;;;;;;5026204;28;20493;-74
2022/08/28 04:39:30;;;;;;;21.50;18.33;;;;;;;;;;5026530;28;20405;-74
2022/08/28 04:41:55;;;;;;;49.33;44.35;;;;;;;;;;5026715;28;20058;-75
2022/08/28 04:44:21;;;;;;;28.15;23.30;;;;;;;;;;5026960;28;20037;-74
2022/08/28 04:46:46;;;;;;;21.67;19.42;;;;;;;;;;5025127;28;20040;-74
2022/08/28 04:49:13;;;;;;;20.38;18.15;;;;;;;;;;5026778;28;20318;-78
2022/08/28 04:51:39;;;;;;;20.58;18.55;;;;;;;;;;5026126;28;20044;-73
2022/08/28 04:54:06;;;;;;;21.33;19.25;;;;;;;;;;5025858;28;20060;-77
2022/08/28 04:56:32;;;;;;;21.35;19.45;;;;;;;;;;5025245;28;20111;-74
2022/08/28 04:58:59;;;;;;;21.48;19.27;;;;;;;;;;5025071;28;20364;-75
2022/08/28 05:01:24;;;;;;;22.92;20.05;;;;;;;;;;5024788;28;20353;-75
2022/08/28 05:03:52;;;;;;;20.48;18.45;;;;;;;;;;5025972;28;20029;-74
2022/08/28 05:06:17;;;;;;;20.42;18.63;;;;;;;;;;5025210;28;20094;-74
2022/08/28 05:08:42;;;;;;;24.60;18.42;;;;;;;;;;5023593;28;20025;-74
2022/08/28 05:11:09;;;;;;;19.48;17.65;;;;;;;;;;5026231;28;20360;-74
2022/08/28 05:13:35;;;;;;;21.33;19.30;;;;;;;;;;5026897;28;20112;-74
2022/08/28 05:16:01;;;;;;;21.92;19.65;;;;;;;;;;5025716;28;20751;-74
2022/08/28 05:18:27;;;;;;;21.13;18.98;;;;;;;;;;5026789;28;20033;-74
2022/08/28 05:20:52;;;;;;;21.95;19.63;;;;;;;;;;5025835;28;20017;-74
2022/08/28 05:23:17;;;;;;;20.90;18.98;;;;;;;;;;5025213;28;20107;-74
2022/08/28 05:25:44;;;;;;;21.00;18.85;;;;;;;;;;5025951;28;20048;-73
2022/08/28 05:28:10;;;;;;;19.50;17.65;;;;;;;;;;5025830;28;20095;-75
2022/08/28 05:30:36;;;;;;;20.35;18.38;;;;;;;;;;5025384;28;20036;-75
2022/08/28 05:33:03;;;;;;;19.20;17.35;;;;;;;;;;5024787;28;21168;-74
2022/08/28 05:35:28;;;;;;;20.67;18.55;;;;;;;;;;5024387;28;20033;-74
2022/08/28 05:37:53;;;;;;;19.80;17.88;;;;;;;;;;5024844;28;20025;-73
2022/08/28 05:40:21;;;;;;;19.98;18.17;;;;;;;;;;5023847;28;20033;-74
2022/08/28 05:42:47;;;;;;;20.30;18.15;;;;;;;;;;5025841;28;20049;-76
2022/08/28 05:45:12;;;;;;;19.35;17.40;;;;;;;;;;5026489;28;20035;-73
2022/08/28 05:47:38;;;;;;;19.42;17.45;;;;;;;;;;5023954;28;20037;-73
2022/08/28 05:50:03;;;;;;;18.83;16.75;;;;;;;;;;5024639;28;20029;-73
2022/08/28 05:52:29;;;;;;;19.83;17.92;;;;;;;;;;5026330;28;20045;-74
2022/08/28 05:54:54;;;;;;;17.95;16.08;;;;;;;;;;5025221;28;20037;-75
2022/08/28 05:57:20;;;;;;;17.30;15.45;;;;;;;;;;5024411;28;20065;-74
2022/08/28 05:59:45;;;;;;;16.92;15.30;;;;;;;;;;5025096;28;20018;-78
2022/08/28 06:02:10;;;;;;;17.25;15.20;;;;;;;;;;5024884;28;20029;-73
2022/08/28 06:04:39;;;;;;;17.42;15.30;;;;;;;;;;5021976;28;20029;-74
2022/08/28 06:07:04;;;;;;;17.52;15.82;;;;;;;;;;5023266;28;20117;-77
2022/08/28 06:09:30;;;;;;;16.88;14.88;;;;;;;;;;5023952;28;20112;-74
2022/08/28 06:11:57;;;;;;;18.38;15.02;;;;;;;;;;5024390;28;20488;-74
2022/08/28 06:14:23;;;;;;;16.95;15.27;;;;;;;;;;5023500;28;20104;-73
2022/08/28 06:16:50;;;;;;;16.40;14.70;;;;;;;;;;5024488;28;20104;-73
2022/08/28 06:19:16;;;;;;;18.45;14.40;;;;;;;;;;5025077;28;20037;-77
2022/08/28 06:21:42;;;;;;;16.90;13.40;;;;;;;;;;5025115;28;20620;-74
2022/08/28 06:24:08;;;;;;;17.67;14.60;;;;;;;;;;5024024;28;20090;-73
2022/08/28 06:26:34;;;;;;;16.65;14.15;;;;;;;;;;5024546;28;20033;-74
2022/08/28 06:29:05;;;;;;;14.45;12.70;;;;;;;;;;5024855;28;20028;-74
2022/08/28 06:31:30;;;;;;;11.68;10.55;;;;;;;;;;5024906;28;20039;-74
2022/08/28 06:33:57;;;;;;;13.93;9.60;;;;;;;;;;5022931;28;20029;-74
2022/08/28 06:36:23;;;;;;;12.20;10.68;;;;;;;;;;5022628;28;20123;-75
2022/08/28 06:38:48;;;;;;;13.48;10.32;;;;;;;;;;5023115;28;20049;-74
2022/08/28 06:41:14;;;;;;;13.90;9.75;;;;;;;;;;5023240;28;20075;-75
2022/08/28 06:43:39;;;;;;;16.00;9.55;;;;;;;;;;5022504;28;20053;-74
2022/08/28 06:46:06;;;;;;;11.55;9.20;;;;;;;;;;5022340;28;20045;-77
2022/08/28 06:48:32;;;;;;;12.52;8.98;;;;;;;;;;5024397;28;20087;-76
2022/08/28 06:50:58;;;;;;;13.60;9.02;;;;;;;;;;5024814;28;20029;-77
2022/08/28 06:53:27;;;;;;;17.33;8.88;;;;;;;;;;5023334;28;20360;-76
2022/08/28 06:55:57;;;;;;;11.80;8.32;;;;;;;;;;5025335;28;20048;-75
2022/08/28 06:58:22;;;;;;;9.15;7.63;;;;;;;;;;5024707;28;20044;-75
2022/08/28 07:00:49;;;;;;;12.93;8.23;;;;;;;;;;5022557;28;20034;-76
2022/08/28 07:03:15;;;;;;;12.30;7.68;;;;;;;;;;5023474;28;20052;-76
2022/08/28 07:05:40;;;;;;;12.75;7.60;;;;;;;;;;5022672;28;20352;-75
2022/08/28 07:08:06;;;;;;;13.80;6.90;;;;;;;;;;5024152;28;20048;-74
2022/08/28 07:10:31;;;;;;;12.43;6.78;;;;;;;;;;5022385;28;20124;-75
2022/08/28 07:12:59;;;;;;;14.50;7.07;;;;;;;;;;5024347;28;20021;-75
2022/08/28 07:15:24;;;;;;;8.85;6.65;;;;;;;;;;5022254;28;20116;-76
2022/08/28 07:17:50;;;;;;;17.70;11.70;;;;;;;;;;5023175;28;20116;-77
2022/08/28 07:20:15;;;;;;;17.52;10.23;;;;;;;;;;5021775;28;20029;-76
2022/08/28 07:22:41;;;;;;;10.82;7.82;;;;;;;;;;5006498;28;20025;-77
2022/08/28 07:25:07;;;;;;;12.70;7.60;;;;;;;;;;5024811;28;20047;-78
2022/08/28 07:27:32;;;;;;;13.20;6.70;;;;;;;;;;5027859;28;20048;-75
2022/08/28 07:29:58;;;;;;;9.45;6.38;;;;;;;;;;5026854;28;20104;-76
2022/08/28 07:32:24;;;;;;;12.35;6.53;;;;;;;;;;5026241;28;20056;-77
2022/08/28 07:34:49;;;;;;;10.85;5.97;;;;;;;;;;5026748;28;20037;-76
2022/08/28 07:37:15;;;;;;;7.40;6.00;;;;;;;;;;5026668;28;20040;-75
2022/08/28 07:39:41;;;;;;;13.45;6.35;;;;;;;;;;5027370;28;20017;-78
2022/08/28 07:42:06;;;;;;;12.27;6.32;;;;;;;;;;5028545;28;20047;-77
2022/08/28 07:44:49;;;;;;;11.60;6.13;;;;;;;;;;5027516;28;20042;-77
2022/08/28 07:47:16;;;;;;;11.32;5.68;;;;;;;;;;5027158;28;20124;-76
2022/08/28 07:49:42;;;;;;;21.27;6.57;;;;;;;;;;5028700;28;20032;-75
2022/08/28 07:52:08;;;;;;;23.38;7.00;;;;;;;;;;5026944;28;20029;-77
2022/08/28 07:54:34;;;;;;;12.85;6.57;;;;;;;;;;5025325;28;20037;-77
2022/08/28 07:57:01;;;;;;;12.95;6.13;;;;;;;;;;5026733;28;20128;-80
2022/08/28 07:59:28;;;;;;;12.10;5.35;;;;;;;;;;5024655;28;20033;-76
2022/08/28 08:01:54;;;;;;;7.85;5.47;;;;;;;;;;5027293;28;20025;-77
2022/08/28 08:04:20;;;;;;;11.60;5.80;;;;;;;;;;5028379;28;20456;-76
2022/08/28 08:06:45;;;;;;;7.40;5.57;;;;;;;;;;5027878;28;20095;-76
2022/08/28 08:09:12;;;;;;;8.20;5.38;;;;;;;;;;5025381;28;20029;-75
2022/08/28 08:11:37;;;;;;;17.13;6.13;;;;;;;;;;5026178;28;20033;-76
2022/08/28 08:14:04;;;;;;;7.38;5.05;;;;;;;;;;5025842;28;20033;-75
2022/08/28 08:16:32;;;;;;;9.27;5.30;;;;;;;;;;5026785;28;20025;-75
2022/08/28 08:18:57;;;;;;;10.48;5.50;;;;;;;;;;5025746;28;20028;-76
2022/08/28 08:21:23;;;;;;;10.48;6.13;;;;;;;;;;5028622;28;20021;-75
2022/08/28 08:23:48;;;;;;;9.30;5.55;;;;;;;;;;5027306;28;20388;-75
2022/08/28 08:26:16;;;;;;;9.93;5.05;;;;;;;;;;5025165;28;20047;-76
2022/08/28 08:28:42;;;;;;;13.63;6.20;;;;;;;;;;5027590;28;20035;-75
2022/08/28 08:31:10;;;;;;;9.40;5.97;;;;;;;;;;5025076;28;20033;-76
2022/08/28 08:33:37;;;;;;;13.43;8.37;;;;;;;;;;5025323;28;21174;-76
2022/08/28 08:36:03;;;;;;;14.35;5.78;;;;;;;;;;5023984;28;20021;-75
2022/08/28 08:38:29;;;;;;;9.10;5.55;;;;;;;;;;5013481;28;20048;-74
2022/08/28 08:40:54;;;;;;;9.52;5.97;;;;;;;;;;5026286;28;20127;-76
2022/08/28 08:43:20;;;;;;;10.20;5.97;;;;;;;;;;5024233;28;20520;-74
2022/08/28 08:45:46;;;;;;;10.13;5.93;;;;;;;;;;5028936;28;20032;-76
2022/08/28 08:48:19;;;;;;;10.40;5.47;;;;;;;;;;5024728;28;20048;-76
2022/08/28 08:50:45;;;;;;;13.18;6.20;;;;;;;;;;5011786;28;20021;-75
2022/08/28 08:53:11;;;;;;;9.43;5.95;;;;;;;;;;5025775;28;20025;-76
2022/08/28 08:55:44;;;;;;;16.35;5.57;;;;;;;;;;5007447;28;20029;-74
2022/08/28 08:58:11;;;;;;;11.82;6.88;;;;;;;;;;5024386;28;20032;-75
2022/08/28 09:00:42;;;;;;;11.80;5.75;;;;;;;;;;5026524;28;20039;-75
2022/08/28 09:03:18;;;;;;;18.52;8.57;;;;;;;;;;5028411;28;20029;-75
2022/08/28 09:06:00;;;;;;;16.65;6.57;;;;;;;;;;5024321;28;20120;-72
2022/08/28 09:08:30;;;;;;;11.15;6.20;;;;;;;;;;5009564;28;20033;-75
2022/08/28 09:11:20;;;;;;;12.55;6.55;;;;;;;;;;4996939;28;20486;-74
2022/08/28 09:13:58;;;;;;;9.43;6.70;;;;;;;;;;5002273;28;20060;-77
2022/08/28 09:16:30;;;;;;;10.07;5.83;;;;;;;;;;5010345;28;20033;-75
2022/08/28 09:18:56;;;;;;;24.45;16.05;;;;;;;;;;5009684;28;20389;-74
2022/08/28 09:21:24;;;;;;;38.45;24.80;;;;;;;;;;5010896;28;20030;-74
2022/08/28 09:23:51;;;;;;;11.30;8.47;;;;;;;;;;5024507;28;20056;-74
2022/08/28 09:26:20;;;;;;;11.55;6.50;;;;;;;;;;4999601;28;20052;-73
2022/08/28 09:28:57;;;;;;;13.20;6.75;;;;;;;;;;5014780;28;20107;-73
2022/08/28 09:31:36;;;;;;;12.68;6.72;;;;;;;;;;5023069;28;20322;-74
2022/08/28 09:34:22;;;;;;;15.80;6.38;;;;;;;;;;5024181;28;20030;-76
2022/08/28 09:36:48;;;;;;;17.85;8.27;;;;;;;;;;5027093;28;20030;-73
2022/08/28 09:39:24;;;;;;;9.40;6.55;;;;;;;;;;5021770;28;20029;-72
2022/08/28 09:45:06;;;;;;;12.30;5.90;;;;;;;;;;5022060;28;20044;-73
2022/08/28 09:47:43;;;;;;;10.50;5.57;;;;;;;;;;5021701;28;20045;-76
2022/08/28 09:50:26;;;;;;;11.85;6.22;;;;;;;;;;5025925;28;20029;-76
2022/08/28 09:52:53;;;;;;;14.13;5.70;;;;;;;;;;5013569;28;20032;-73
2022/08/28 09:55:21;;;;;;;11.25;6.18;;;;;;;;;;5015854;28;20037;-74
2022/08/28 09:57:46;;;;;;;11.77;6.43;;;;;;;;;;5009712;28;20100;-77
2022/08/28 10:00:12;;;;;;;10.88;5.90;;;;;;;;;;5011007;28;20436;-75
2022/08/28 10:02:44;;;;;;;10.98;5.72;;;;;;;;;;5008898;28;20025;-75
2022/08/28 10:05:11;;;;;;;12.18;5.75;;;;;;;;;;5016614;28;20021;-76
2022/08/28 10:07:37;;;;;;;8.23;5.72;;;;;;;;;;5023866;28;20034;-75
2022/08/28 10:10:15;;;;;;;12.60;6.47;;;;;;;;;;5024430;28;20033;-75
2022/08/28 10:12:58;;;;;;;14.25;5.88;;;;;;;;;;5016204;28;20468;-75
2022/08/28 10:15:36;;;;;;;14.40;6.07;;;;;;;;;;5008333;28;20468;-73
2022/08/28 10:18:20;;;;;;;17.20;6.68;;;;;;;;;;5007126;28;20033;-73
2022/08/28 10:21:21;;;;;;;10.18;5.95;;;;;;;;;;5005698;28;20178;-72
2022/08/28 10:24:00;;;;;;;13.10;5.78;;;;;;;;;;4980846;28;20037;-73
2022/08/28 10:26:32;;;;;;;6.45;5.85;;;;;;;;;;5006707;28;24136;-75
2022/08/28 10:28:57;;;;;;;10.65;6.47;;;;;;;;;;5008183;28;20068;-76
2022/08/28 10:31:32;;;;;;;12.87;6.67;;;;;;;;;;5018018;28;20464;-74
2022/08/28 10:34:01;;;;;;;11.95;7.70;;;;;;;;;;5024637;28;20268;-74
2022/08/28 10:36:30;;;;;;;10.43;6.03;;;;;;;;;;5015064;28;20098;-75
2022/08/28 10:39:08;;;;;;;8.50;5.55;;;;;;;;;;5008161;28;20478;-74
2022/08/28 10:41:40;;;;;;;15.70;6.18;;;;;;;;;;5022387;28;20075;-77
2022/08/28 10:44:06;;;;;;;11.82;5.65;;;;;;;;;;5024102;28;20042;-74
2022/08/28 10:46:34;;;;;;;12.82;5.78;;;;;;;;;;5011807;28;20340;-77
2022/08/28 10:49:02;;;;;;;9.87;5.47;;;;;;;;;;5009416;28;20030;-74
2022/08/28 10:51:40;;;;;;;12.00;6.00;;;;;;;;;;5008294;28;20266;-76
2022/08/28 10:54:25;;;;;;;8.10;5.30;;;;;;;;;;5024517;28;20044;-75
2022/08/28 10:57:00;;;;;;;10.27;6.15;;;;;;;;;;5007244;28;20048;-75
2022/08/28 10:59:28;;;;;;;9.98;5.35;;;;;;;;;;5009801;28;20033;-76
2022/08/28 11:01:53;;;;;;;7.88;5.00;;;;;;;;;;5011916;28;20437;-74
2022/08/28 11:04:20;;;;;;;11.95;5.18;;;;;;;;;;5010477;28;20033;-74
2022/08/28 11:06:59;;;;;;;7.93;4.68;;;;;;;;;;5010758;28;20091;-74
2022/08/28 11:09:30;;;;;;;11.95;5.63;;;;;;;;;;5011195;28;20047;-80
2022/08/28 11:12:19;;;;;;;15.27;5.30;;;;;;;;;;5010959;28;20021;-76
2022/08/28 11:14:46;;;;;;;11.98;6.65;;;;;;;;;;5000203;28;20041;-75
2022/08/28 11:17:20;;;;;;;11.98;6.30;;;;;;;;;;5010543;28;20021;-74
2022/08/28 11:20:06;;;;;;;11.13;5.25;;;;;;;;;;5010207;28;20033;-75
2022/08/28 11:22:34;;;;;;;10.27;5.47;;;;;;;;;;5010798;28;20037;-74
2022/08/28 11:25:05;;;;;;;8.32;5.00;;;;;;;;;;5011908;28;20073;-74
2022/08/28 11:27:32;;;;;;;11.95;5.93;;;;;;;;;;5011022;28;20033;-75
2022/08/28 11:30:00;;;;;;;14.82;6.53;;;;;;;;;;5011466;28;20021;-75
2022/08/28 11:32:26;;;;;;;9.38;5.57;;;;;;;;;;5019253;28;20033;-74
2022/08/28 11:34:56;;;;;;;14.38;5.75;;;;;;;;;;5027587;28;20052;-75
2022/08/28 11:37:39;;;;;;;11.93;5.38;;;;;;;;;;5018616;28;21045;-75
2022/08/28 11:40:23;;;;;;;7.68;4.55;;;;;;;;;;5023570;28;20029;-75
2022/08/28 11:42:48;;;;;;;8.93;5.45;;;;;;;;;;5025243;28;20049;-77
2022/08/28 11:45:17;;;;;;;10.20;5.00;;;;;;;;;;5027494;28;20025;-75
2022/08/28 11:47:47;;;;;;;12.32;5.50;;;;;;;;;;5028799;28;20040;-75
2022/08/28 11:50:19;;;;;;;11.40;5.28;;;;;;;;;;5026793;28;20083;-74
2022/08/28 11:52:47;;;;;;;8.05;4.80;;;;;;;;;;5027881;28;20112;-74
2022/08/28 11:55:19;;;;;;;10.80;5.22;;;;;;;;;;5027407;28;20396;-76
2022/08/28 11:57:54;;;;;;;10.68;5.55;;;;;;;;;;5027863;28;20061;-74
2022/08/28 12:00:20;;;;;;;8.20;5.47;;;;;;;;;;5028912;28;20044;-74
2022/08/28 12:02:50;;;;;;;10.60;4.80;;;;;;;;;;5026532;28;20345;-74
2022/08/28 12:05:16;;;;;;;9.55;5.22;;;;;;;;;;5026463;28;20452;-78
2022/08/28 12:07:46;;;;;;;10.73;5.55;;;;;;;;;;5013622;28;20030;-74
2022/08/28 12:10:24;;;;;;;10.32;5.55;;;;;;;;;;5010099;28;20076;-75
2022/08/28 12:12:52;;;;;;;12.20;5.68;;;;;;;;;;5007962;28;20029;-75
2022/08/28 12:15:24;;;;;;;14.15;10.73;;;;;;;;;;5009707;28;20097;-74
2022/08/28 12:17:50;;;;;;;14.75;8.23;;;;;;;;;;5015967;28;20115;-76
2022/08/28 12:20:21;;;;;;;13.05;8.27;;;;;;;;;;5011083;28;20032;-74
2022/08/28 12:22:51;;;;;;;9.30;5.68;;;;;;;;;;5027392;28;20799;-75
2022/08/28 12:25:37;;;;;;;11.13;5.55;;;;;;;;;;5024665;28;20038;-75
2022/08/28 12:28:05;;;;;;;9.07;4.97;;;;;;;;;;5027612;28;20031;-75
2022/08/28 12:30:30;;;;;;;;;;;;;;;;;;5015670;28;20444;-78
2022/08/28 12:33:06;;;;;;;6.73;5.67;;;;;;;;;;5025923;28;19923;-74
2022/08/28 12:35:31;;;;;;;13.35;5.68;;;;;;;;;;5025877;28;20409;-76
2022/08/28 12:38:01;;;;;;;11.98;6.55;;;;;;;;;;5026693;28;20033;-76
2022/08/28 12:40:36;;;;;;;7.63;5.45;;;;;;;;;;5027030;28;20041;-75
2022/08/28 12:43:05;;;;;;;8.77;5.13;;;;;;;;;;5023670;28;20055;-74
2022/08/28 12:45:33;;;;;;;9.50;5.47;;;;;;;;;;5024977;28;20029;-75
2022/08/28 12:47:58;;;;;;;;;;;;;;;;;;5023604;28;20045;-78
2022/08/28 12:50:29;;;;;;;14.97;5.27;;;;;;;;;;5024557;28;19917;-77
2022/08/28 12:52:56;;;;;;;10.35;5.68;;;;;;;;;;5026449;28;20048;-74
2022/08/28 12:55:23;;;;;;;8.80;5.20;;;;;;;;;;5023063;28;20036;-76
2022/08/28 12:57:48;;;;;;;9.82;5.20;;;;;;;;;;5009266;28;20025;-77
2022/08/28 13:00:19;;;;;;;9.13;5.03;;;;;;;;;;5018562;28;20124;-72
2022/08/28 13:02:44;;;;;;;11.52;5.38;;;;;;;;;;5012345;28;20033;-75
2022/08/28 13:05:17;;;;;;;11.10;7.20;;;;;;;;;;5009875;28;20029;-74
2022/08/28 13:07:47;;;;;;;15.15;8.18;;;;;;;;;;5017661;28;20538;-75
2022/08/28 13:10:16;;;;;;;12.85;6.47;;;;;;;;;;5010333;28;20683;-75
2022/08/28 13:12:41;;;;;;;9.20;5.03;;;;;;;;;;5009960;28;20508;-75
2022/08/28 13:15:08;;;;;;;8.35;5.07;;;;;;;;;;5010126;28;20124;-77
2022/08/28 13:17:48;;;;;;;11.77;5.50;;;;;;;;;;5009426;28;20023;-75
2022/08/28 13:20:24;;;;;;;18.92;8.88;;;;;;;;;;5010668;28;20045;-75
2022/08/28 13:22:49;;;;;;;10.60;5.18;;;;;;;;;;5008581;28;20028;-73
2022/08/28 13:25:19;;;;;;;12.43;5.25;;;;;;;;;;5009822;28;20352;-73
2022/08/28 13:27:53;;;;;;;13.85;6.47;;;;;;;;;;5008788;28;20276;-73
2022/08/28 13:30:23;;;;;;;20.55;14.55;;;;;;;;;;5008410;28;20445;-74
2022/08/28 13:32:56;;;;;;;16.60;10.10;;;;;;;;;;5007012;28;20022;-76
2022/08/28 13:35:22;;;;;;;20.90;15.23;;;;;;;;;;5008807;28;20029;-77
2022/08/28 13:37:52;;;;;;;14.33;9.20;;;;;;;;;;5008790;28;20033;-76
2022/08/28 13:40:28;;;;;;;12.25;6.90;;;;;;;;;;5009251;28;20396;-73
2022/08/28 13:42:56;;;;;;;10.68;6.35;;;;;;;;;;5010034;28;20107;-76
2022/08/28 13:45:22;;;;;;;8.18;5.75;;;;;;;;;;5020978;28;20107;-75
2022/08/28 13:47:47;;;;;;;9.02;5.28;;;;;;;;;;5025145;28;20182;-76
2022/08/28 13:50:12;;;;;;;10.48;5.43;;;;;;;;;;5024757;28;20037;-75
2022/08/28 13:52:38;;;;;;;14.68;6.30;;;;;;;;;;5020860;28;20029;-77
2022/08/28 13:55:03;;;;;;;20.77;7.30;;;;;;;;;;5011924;28;20030;-79
2022/08/28 13:57:29;;;;;;;20.25;8.05;;;;;;;;;;5009489;28;20027;-76
2022/08/28 13:59:54;;;;;;;17.20;7.05;;;;;;;;;;5007030;28;20030;-77
2022/08/28 14:05:04;;;;;;;15.02;8.25;;;;;;;;;;5023071;28;20042;-77
2022/08/28 14:07:30;;;;;;;11.93;7.75;;;;;;;;;;5023173;28;20030;-78
2022/08/28 14:09:55;;;;;;;20.23;8.55;;;;;;;;;;5014368;28;20017;-77
2022/08/28 14:12:21;;;;;;;9.00;6.18;;;;;;;;;;5014900;28;20037;-76
2022/08/28 14:14:47;;;;;;;11.30;6.85;;;;;;;;;;5024747;28;20419;-78
2022/08/28 14:17:13;;;;;;;12.57;8.23;;;;;;;;;;5006365;28;20052;-75
2022/08/28 14:19:38;;;;;;;13.23;8.68;;;;;;;;;;5007113;28;20610;-75
2022/08/28 14:22:04;;;;;;;18.13;8.02;;;;;;;;;;5007674;28;20021;-75
2022/08/28 14:24:29;;;;;;;12.73;7.25;;;;;;;;;;5008790;28;20041;-79
2022/08/28 14:26:55;;;;;;;11.63;7.85;;;;;;;;;;5007481;28;20037;-77
2022/08/28 14:29:21;;;;;;;11.50;5.95;;;;;;;;;;5007441;28;20041;-77
2022/08/28 14:31:46;;;;;;;8.52;6.60;;;;;;;;;;5007758;28;20026;-77
2022/08/28 14:34:14;;;;;;;10.45;7.38;;;;;;;;;;5015416;28;20164;-77
2022/08/28 14:36:40;;;;;;;11.68;6.88;;;;;;;;;;5022623;28;20360;-77